createdAt,value
2019-04-07T00:01:11.430Z,14.21
2019-04-07T00:03:40.979Z,14.19
2019-04-07T00:06:10.914Z,14.17
2019-04-07T00:08:40.522Z,14.14
2019-04-07T00:11:10.586Z,14.09
2019-04-07T00:13:40.139Z,14.07
2019-04-07T00:16:09.851Z,14.03
2019-04-07T00:18:40.043Z,14.03
2019-04-07T00:21:09.992Z,14.03
2019-04-07T00:23:39.703Z,14.02
2019-04-07T00:26:09.746Z,13.99
2019-04-07T00:28:39.580Z,13.96
2019-04-07T00:31:09.208Z,13.90
2019-04-07T00:33:38.862Z,13.87
2019-04-07T00:36:08.639Z,13.89
2019-04-07T00:38:38.482Z,13.88
2019-04-07T00:41:08.063Z,13.90
2019-04-07T00:43:37.709Z,13.89
2019-04-07T00:46:07.693Z,13.86
2019-04-07T00:48:37.428Z,13.82
2019-04-07T00:51:06.998Z,13.81
2019-04-07T00:53:37.508Z,13.75
2019-04-07T00:56:07.124Z,13.73
2019-04-07T00:58:36.948Z,13.73
2019-04-07T01:01:07.613Z,13.75
2019-04-07T01:03:37.203Z,13.73
2019-04-07T01:06:06.789Z,13.69
2019-04-07T01:08:36.569Z,13.72
2019-04-07T01:11:06.828Z,13.66
2019-04-07T01:13:36.456Z,13.65
2019-04-07T01:16:06.631Z,13.65
2019-04-07T01:18:38.055Z,13.66
2019-04-07T01:21:08.287Z,13.61
2019-04-07T01:23:38.015Z,13.61
2019-04-07T01:26:07.746Z,13.57
2019-04-07T01:28:37.495Z,13.54
2019-04-07T01:31:07.261Z,13.53
2019-04-07T01:33:36.889Z,13.53
2019-04-07T01:36:06.524Z,13.49
2019-04-07T01:38:36.588Z,13.50
2019-04-07T01:41:37.206Z,13.48
2019-04-07T01:44:17.977Z,13.46
2019-04-07T01:47:06.544Z,13.43
2019-04-07T01:50:00.922Z,13.39
2019-04-07T01:52:55.510Z,13.31
2019-04-07T01:55:43.380Z,13.24
2019-04-07T01:58:38.861Z,13.20
2019-04-07T02:01:20.812Z,13.14
2019-04-07T02:04:08.182Z,13.09
2019-04-07T02:06:55.609Z,13.05
2019-04-07T02:09:56.507Z,13.03
2019-04-07T02:12:44.203Z,12.98
2019-04-07T02:15:32.804Z,12.92
2019-04-07T02:18:22.464Z,12.89
2019-04-07T02:21:02.121Z,12.88
2019-04-07T02:23:53.617Z,12.87
2019-04-07T02:26:40.789Z,12.81
2019-04-07T02:29:29.208Z,12.71
2019-04-07T02:32:24.541Z,12.69
2019-04-07T02:35:22.875Z,12.64
2019-04-07T02:38:14.561Z,12.65
2019-04-07T02:40:53.443Z,12.60
2019-04-07T02:43:44.841Z,12.57
2019-04-07T02:46:24.043Z,12.45
2019-04-07T02:48:59.965Z,12.42
2019-04-07T02:51:51.243Z,12.45
2019-04-07T02:54:43.286Z,12.43
2019-04-07T02:57:20.647Z,12.42
2019-04-07T02:59:59.645Z,12.43
2019-04-07T03:02:50.462Z,12.40
2019-04-07T03:05:42.324Z,12.38
2019-04-07T03:08:30.228Z,12.34
2019-04-07T03:11:18.102Z,12.19
2019-04-07T03:13:57.167Z,12.10
2019-04-07T03:16:46.130Z,11.97
2019-04-07T03:19:27.331Z,12.03
2019-04-07T03:22:13.476Z,12.07
2019-04-07T03:25:11.186Z,12.08
2019-04-07T03:27:58.014Z,12.05
2019-04-07T03:30:45.353Z,12.01
2019-04-07T03:33:35.104Z,11.98
2019-04-07T03:36:25.721Z,11.98
2019-04-07T03:39:15.083Z,11.96
2019-04-07T03:42:03.030Z,11.91
2019-04-07T03:44:51.437Z,11.87
2019-04-07T03:47:25.970Z,11.86
2019-04-07T03:50:00.331Z,11.63
2019-04-07T03:52:47.305Z,11.68
2019-04-07T03:55:42.221Z,11.72
2019-04-07T03:58:29.895Z,11.70
2019-04-07T04:01:19.391Z,11.63
2019-04-07T04:03:56.723Z,11.52
2019-04-07T04:06:47.827Z,11.54
2019-04-07T04:09:24.172Z,11.55
2019-04-07T04:12:01.478Z,11.55
2019-04-07T04:14:39.811Z,11.53
2019-04-07T04:17:09.542Z,11.56
2019-04-07T04:19:40.788Z,11.58
2019-04-07T04:22:10.339Z,11.55
2019-04-07T04:24:40.187Z,11.54
2019-04-07T04:27:10.752Z,11.56
2019-04-07T04:29:40.190Z,11.55
2019-04-07T04:32:09.625Z,11.55
2019-04-07T04:34:39.080Z,11.48
2019-04-07T04:37:09.456Z,11.46
2019-04-07T04:39:38.987Z,11.49
2019-04-07T04:42:08.672Z,11.48
2019-04-07T04:44:38.074Z,11.47
2019-04-07T04:47:08.099Z,11.49
2019-04-07T04:49:38.333Z,11.48
2019-04-07T04:52:08.039Z,11.49
2019-04-07T04:54:37.406Z,11.49
2019-04-07T04:57:09.134Z,11.47
2019-04-07T04:59:37.955Z,11.54
2019-04-07T05:02:07.799Z,11.58
2019-04-07T05:04:37.451Z,11.64
2019-04-07T05:07:07.595Z,11.68
2019-04-07T05:09:44.377Z,11.79
2019-04-07T05:12:08.388Z,11.85
2019-04-07T05:14:37.902Z,11.93
2019-04-07T05:17:07.431Z,11.96
2019-04-07T05:19:37.310Z,12.05
2019-04-07T05:22:07.162Z,12.12
2019-04-07T05:24:36.723Z,12.37
2019-04-07T05:27:06.434Z,12.50
2019-04-07T05:29:36.538Z,12.76
2019-04-07T05:32:06.861Z,12.99
2019-04-07T05:34:36.692Z,13.24
2019-04-07T05:37:06.536Z,13.40
2019-04-07T05:39:36.199Z,13.58
2019-04-07T05:42:05.713Z,13.83
2019-04-07T05:44:35.606Z,14.13
2019-04-07T05:47:05.080Z,14.35
2019-04-07T05:49:34.598Z,14.64
2019-04-07T05:52:05.760Z,14.87
2019-04-07T05:54:35.209Z,15.00
2019-04-07T05:57:05.374Z,15.22
2019-04-07T05:59:35.424Z,15.52
2019-04-07T06:02:04.878Z,15.55
2019-04-07T06:04:34.911Z,15.79
2019-04-07T06:07:04.614Z,16.08
2019-04-07T06:09:35.038Z,16.39
2019-04-07T06:12:07.971Z,16.72
2019-04-07T06:14:35.652Z,16.90
2019-04-07T06:17:05.095Z,17.00
2019-04-07T06:19:37.372Z,17.26
2019-04-07T06:22:07.585Z,17.58
2019-04-07T06:24:36.799Z,17.77
2019-04-07T06:27:06.146Z,17.93
2019-04-07T06:29:35.660Z,18.09
2019-04-07T06:32:08.903Z,18.46
2019-04-07T06:34:39.756Z,18.87
2019-04-07T06:37:07.719Z,19.17
2019-04-07T06:39:37.428Z,19.42
2019-04-07T06:42:07.510Z,19.57
2019-04-07T06:44:37.702Z,19.68
2019-04-07T06:47:13.721Z,19.79
2019-04-07T06:50:21.119Z,19.70
2019-04-07T06:53:10.613Z,19.91
2019-04-07T06:55:53.985Z,20.28
2019-04-07T06:58:42.937Z,20.44
2019-04-07T07:01:32.589Z,20.48
2019-04-07T07:04:19.602Z,20.63
2019-04-07T07:07:07.321Z,20.41
2019-04-07T07:09:52.266Z,20.63
2019-04-07T07:12:38.689Z,21.20
2019-04-07T07:15:23.447Z,21.78
2019-04-07T07:18:23.643Z,21.62
2019-04-07T07:21:05.086Z,21.81
2019-04-07T07:23:38.570Z,21.81
2019-04-07T07:26:09.091Z,22.02
2019-04-07T07:28:42.896Z,21.23
2019-04-07T07:31:11.085Z,19.86
2019-04-07T07:33:42.666Z,18.84
2019-04-07T07:36:12.256Z,20.49
2019-04-07T07:38:54.457Z,20.92
2019-04-07T07:41:12.962Z,19.02
2019-04-07T07:43:43.512Z,19.57
2019-04-07T07:46:13.155Z,20.20
2019-04-07T07:48:42.603Z,19.22
2019-04-07T07:51:13.262Z,19.21
2019-04-07T07:53:43.187Z,19.94
2019-04-07T07:56:13.558Z,19.72
2019-04-07T07:58:43.932Z,20.29
2019-04-07T08:01:14.874Z,20.61
2019-04-07T08:03:44.531Z,19.53
2019-04-07T08:06:13.946Z,19.87
2019-04-07T08:08:45.200Z,20.36
2019-04-07T08:11:17.617Z,20.04
2019-04-07T08:13:48.550Z,19.81
2019-04-07T08:16:19.110Z,20.08
2019-04-07T08:18:48.789Z,19.64
2019-04-07T08:21:19.963Z,21.84
2019-04-07T08:23:49.974Z,20.16
2019-04-07T08:26:20.476Z,19.51
2019-04-07T08:28:51.414Z,20.85
2019-04-07T08:31:21.571Z,21.21
2019-04-07T08:33:51.854Z,21.57
2019-04-07T08:36:22.725Z,21.87
2019-04-07T08:38:55.103Z,22.49
2019-04-07T08:41:24.513Z,22.54
2019-04-07T08:43:57.537Z,24.85
2019-04-07T08:46:30.620Z,24.38
2019-04-07T08:49:03.046Z,23.80
2019-04-07T08:51:33.657Z,23.93
2019-04-07T08:54:04.683Z,23.61
2019-04-07T08:56:34.693Z,21.48
2019-04-07T08:59:07.885Z,22.99
2019-04-07T09:01:36.132Z,20.86
2019-04-07T09:04:05.711Z,21.75
2019-04-07T09:06:35.625Z,22.33
2019-04-07T09:09:07.951Z,21.63
2019-04-07T09:11:40.334Z,21.71
2019-04-07T09:14:09.263Z,23.37
2019-04-07T09:17:00.775Z,23.73
2019-04-07T09:19:59.548Z,21.76
2019-04-07T09:22:51.546Z,22.07
2019-04-07T09:25:40.540Z,23.14
2019-04-07T09:28:31.504Z,23.46
2019-04-07T09:31:10.688Z,27.35
2019-04-07T09:34:05.229Z,23.31
2019-04-07T09:36:56.495Z,24.40
2019-04-07T09:39:55.480Z,27.23
2019-04-07T09:42:25.788Z,25.81
2019-04-07T09:45:17.541Z,26.55
2019-04-07T09:48:09.065Z,26.67
2019-04-07T09:50:58.640Z,31.07
2019-04-07T09:53:44.682Z,33.73
2019-04-07T09:56:33.492Z,30.50
2019-04-07T09:59:21.030Z,30.10
2019-04-07T10:02:12.603Z,27.82
2019-04-07T10:05:01.509Z,26.27
2019-04-07T10:07:59.281Z,28.34
2019-04-07T10:10:43.641Z,32.83
2019-04-07T10:13:27.424Z,30.13
2019-04-07T10:16:18.784Z,29.30
2019-04-07T10:19:10.926Z,26.29
2019-04-07T10:22:01.484Z,26.55
2019-04-07T10:24:55.966Z,28.60
2019-04-07T10:27:43.006Z,27.43
2019-04-07T10:30:37.026Z,26.27
2019-04-07T10:33:30.486Z,23.78
2019-04-07T10:36:19.500Z,23.14
2019-04-07T10:39:03.073Z,22.72
2019-04-07T10:41:57.674Z,22.71
2019-04-07T10:44:45.065Z,22.57
2019-04-07T10:47:34.539Z,22.58
2019-04-07T10:50:29.059Z,21.76
2019-04-07T10:53:23.969Z,22.31
2019-04-07T10:56:02.315Z,23.56
2019-04-07T10:58:52.761Z,22.20
2019-04-07T11:01:41.321Z,22.14
2019-04-07T11:04:32.739Z,21.50
2019-04-07T11:07:28.257Z,21.82
2019-04-07T11:10:09.234Z,21.63
2019-04-07T11:12:57.178Z,21.75
2019-04-07T11:16:01.084Z,21.03
2019-04-07T11:18:46.968Z,21.55
2019-04-07T11:21:41.357Z,21.60
2019-04-07T11:24:36.052Z,21.10
2019-04-07T11:27:19.108Z,21.83
2019-04-07T11:30:05.056Z,22.71
2019-04-07T11:33:09.496Z,22.04
2019-04-07T11:35:44.449Z,22.24
2019-04-07T11:38:30.013Z,22.15
2019-04-07T11:41:21.627Z,21.95
2019-04-07T11:44:07.943Z,21.79
2019-04-07T11:46:48.806Z,22.18
2019-04-07T11:49:27.641Z,21.57
2019-04-07T11:52:02.486Z,21.71
2019-04-07T11:54:51.193Z,21.59
2019-04-07T11:57:41.195Z,21.45
2019-04-07T12:00:31.257Z,21.40
2019-04-07T12:03:26.865Z,21.51
2019-04-07T12:06:26.860Z,21.54
2019-04-07T12:09:14.250Z,21.41
2019-04-07T12:12:11.615Z,21.22
2019-04-07T12:14:56.784Z,21.08
2019-04-07T12:17:45.189Z,21.56
2019-04-07T12:20:40.759Z,21.83
2019-04-07T12:23:28.631Z,21.55
2019-04-07T12:26:16.373Z,21.32
2019-04-07T12:29:05.860Z,21.48
2019-04-07T12:31:57.764Z,21.78
2019-04-07T12:34:50.734Z,21.87
2019-04-07T12:37:38.060Z,23.22
2019-04-07T12:40:24.708Z,22.74
2019-04-07T12:43:05.786Z,23.13
2019-04-07T12:46:01.251Z,23.43
2019-04-07T12:48:48.446Z,22.14
2019-04-07T12:51:27.615Z,21.80
2019-04-07T12:54:28.822Z,21.74
2019-04-07T12:57:16.893Z,21.39
2019-04-07T12:59:59.576Z,22.35
2019-04-07T13:03:04.428Z,22.16
2019-04-07T13:08:36.677Z,24.20
2019-04-07T13:11:31.163Z,24.43
2019-04-07T13:14:29.864Z,23.79
2019-04-07T13:17:17.199Z,24.06
2019-04-07T13:20:05.150Z,23.70
2019-04-07T13:22:53.111Z,24.19
2019-04-07T13:25:55.012Z,24.25
2019-04-07T13:28:32.675Z,21.92
2019-04-07T13:31:27.664Z,23.03
2019-04-07T13:34:15.845Z,23.48
2019-04-07T13:36:56.169Z,24.58
2019-04-07T13:39:45.941Z,24.30
2019-04-07T13:42:29.268Z,22.98
2019-04-07T13:45:16.862Z,22.30
2019-04-07T13:48:05.931Z,21.58
2019-04-07T13:50:57.963Z,22.71
2019-04-07T13:53:47.605Z,23.52
2019-04-07T13:56:39.659Z,22.89
2019-04-07T13:59:27.271Z,22.81
2019-04-07T14:02:24.789Z,24.83
2019-04-07T14:05:11.244Z,24.37
2019-04-07T14:07:54.482Z,24.14
2019-04-07T14:10:53.956Z,22.81
2019-04-07T14:13:40.726Z,22.44
2019-04-07T14:16:27.628Z,23.02
2019-04-07T14:19:35.400Z,22.08
2019-04-07T14:22:14.400Z,21.91
2019-04-07T14:24:52.663Z,22.91
2019-04-07T14:27:35.107Z,23.78
2019-04-07T14:30:13.712Z,23.72
2019-04-07T14:32:58.165Z,23.18
2019-04-07T14:35:39.234Z,22.21
2019-04-07T14:38:26.586Z,21.90
2019-04-07T14:41:08.591Z,21.89
2019-04-07T14:43:49.705Z,21.30
2019-04-07T14:46:28.488Z,21.61
2019-04-07T14:49:17.282Z,22.44
2019-04-07T14:51:58.506Z,23.89
2019-04-07T14:54:57.076Z,25.02
2019-04-07T14:57:41.556Z,23.33
2019-04-07T15:00:37.521Z,23.31
2019-04-07T15:03:07.338Z,24.52
2019-04-07T15:05:39.471Z,25.26
2019-04-07T15:08:26.390Z,23.14
2019-04-07T15:11:01.456Z,22.22
2019-04-07T15:13:31.016Z,22.10
2019-04-07T15:16:00.435Z,21.54
2019-04-07T15:18:29.882Z,22.30
2019-04-07T15:20:59.419Z,22.53
2019-04-07T15:23:30.982Z,22.85
2019-04-07T15:26:00.243Z,23.38
2019-04-07T15:28:30.617Z,24.52
2019-04-07T15:31:00.998Z,23.58
2019-04-07T15:33:33.925Z,22.16
2019-04-07T15:36:02.482Z,22.32
2019-04-07T15:38:31.892Z,21.84
2019-04-07T15:41:02.455Z,21.53
2019-04-07T15:43:34.888Z,21.80
2019-04-07T15:46:03.598Z,21.74
2019-04-07T15:48:33.014Z,20.97
2019-04-07T15:51:04.956Z,20.87
2019-04-07T15:53:34.208Z,21.00
2019-04-07T15:56:06.514Z,21.17
2019-04-07T15:58:35.284Z,21.08
2019-04-07T16:01:08.638Z,21.32
2019-04-07T16:03:36.758Z,21.57
2019-04-07T16:06:06.239Z,20.97
2019-04-07T16:08:35.728Z,21.04
2019-04-07T16:11:05.094Z,21.21
2019-04-07T16:13:34.545Z,21.58
2019-04-07T16:16:03.984Z,21.71
2019-04-07T16:18:37.010Z,21.50
2019-04-07T16:21:07.149Z,21.76
2019-04-07T16:23:36.375Z,21.88
2019-04-07T16:26:06.567Z,22.02
2019-04-07T16:28:36.133Z,22.17
2019-04-07T16:31:06.567Z,22.33
2019-04-07T16:33:37.188Z,22.30
2019-04-07T16:36:06.579Z,21.56
2019-04-07T16:38:36.542Z,20.95
2019-04-07T16:41:06.600Z,20.82
2019-04-07T16:43:37.758Z,20.93
2019-04-07T16:46:07.733Z,20.99
2019-04-07T16:48:40.032Z,20.75
2019-04-07T16:51:09.250Z,20.53
2019-04-07T16:53:41.728Z,20.26
2019-04-07T16:56:09.944Z,20.26
2019-04-07T16:58:40.157Z,20.07
2019-04-07T17:01:09.701Z,20.44
2019-04-07T17:03:39.805Z,20.27
2019-04-07T17:06:11.793Z,20.06
2019-04-07T17:08:40.518Z,20.05
2019-04-07T17:11:10.811Z,19.91
2019-04-07T17:13:42.682Z,20.28
2019-04-07T17:16:13.025Z,20.32
2019-04-07T17:18:43.658Z,20.34
2019-04-07T17:21:15.532Z,20.38
2019-04-07T17:23:45.589Z,20.47
2019-04-07T17:26:15.536Z,20.70
2019-04-07T17:28:48.168Z,20.96
2019-04-07T17:31:17.581Z,21.03
2019-04-07T17:33:47.138Z,21.05
2019-04-07T17:36:19.678Z,21.12
2019-04-07T17:39:09.317Z,21.19
2019-04-07T17:41:38.072Z,21.22
2019-04-07T17:44:24.907Z,21.25
2019-04-07T17:47:05.716Z,21.20
2019-04-07T17:49:47.200Z,21.19
2019-04-07T17:52:42.594Z,21.14
2019-04-07T17:55:30.837Z,21.07
2019-04-07T17:58:12.701Z,20.99
2019-04-07T18:01:01.753Z,20.87
2019-04-07T18:03:50.824Z,20.78
2019-04-07T18:06:42.060Z,20.65
2019-04-07T18:09:29.795Z,20.60
2019-04-07T18:12:27.203Z,20.52
2019-04-07T18:15:15.090Z,20.41
2019-04-07T18:18:10.850Z,20.28
2019-04-07T18:20:56.083Z,20.14
2019-04-07T18:23:47.247Z,20.01
2019-04-07T18:26:40.520Z,19.94
2019-04-07T18:29:32.179Z,19.83
2019-04-07T18:32:25.306Z,19.75
2019-04-07T18:35:05.077Z,19.67
2019-04-07T18:37:52.954Z,19.57
2019-04-07T18:40:33.704Z,19.53
2019-04-07T18:43:15.188Z,19.45
2019-04-07T18:46:08.918Z,19.38
2019-04-07T18:48:51.549Z,19.31
2019-04-07T18:51:49.000Z,19.25
2019-04-07T18:54:32.484Z,19.22
2019-04-07T18:57:20.514Z,19.19
2019-04-07T19:00:01.260Z,19.22
2019-04-07T19:02:46.214Z,19.26
2019-04-07T19:05:35.110Z,19.29
2019-04-07T19:08:26.001Z,19.35
2019-04-07T19:11:12.332Z,19.43
2019-04-07T19:14:20.377Z,19.45
2019-04-07T19:16:54.561Z,19.41
2019-04-07T19:19:42.016Z,18.86
2019-04-07T19:22:33.451Z,18.68
2019-04-07T19:25:17.255Z,18.58
2019-04-07T19:28:05.773Z,18.63
2019-04-07T19:30:54.992Z,18.58
2019-04-07T19:33:42.183Z,18.36
2019-04-07T19:36:45.018Z,18.12
2019-04-07T19:39:32.861Z,17.89
2019-04-07T19:42:25.301Z,18.03
2019-04-07T19:45:17.628Z,18.13
2019-04-07T19:48:11.353Z,18.25
2019-04-07T19:51:03.180Z,18.37
2019-04-07T19:53:50.202Z,18.48
2019-04-07T19:56:47.971Z,18.52
2019-04-07T19:59:39.236Z,18.57
2019-04-07T20:02:35.963Z,18.23
2019-04-07T20:05:21.954Z,18.17
2019-04-07T20:08:09.803Z,18.26
2019-04-07T20:10:57.788Z,18.36
2019-04-07T20:13:46.769Z,18.47
2019-04-07T20:16:34.042Z,18.46
2019-04-07T20:19:22.251Z,18.38
2019-04-07T20:22:15.651Z,18.34
2019-04-07T20:25:08.736Z,18.36
2019-04-07T20:27:59.021Z,18.49
2019-04-07T20:30:46.971Z,18.47
2019-04-07T20:33:34.485Z,17.85
2019-04-07T20:36:20.148Z,17.87
2019-04-07T20:38:53.287Z,17.94
2019-04-07T20:41:29.767Z,17.52
2019-04-07T20:44:35.242Z,17.35
2019-04-07T20:47:21.928Z,17.47
2019-04-07T20:50:12.512Z,17.58
2019-04-07T20:53:15.424Z,17.76
2019-04-07T20:56:12.973Z,17.84
2019-04-07T20:59:03.102Z,17.76
2019-04-07T21:02:02.513Z,17.64
2019-04-07T21:04:42.893Z,17.65
2019-04-07T21:07:31.340Z,17.79
2019-04-07T21:10:32.715Z,17.87
2019-04-07T21:13:19.958Z,17.90
2019-04-07T21:15:58.058Z,17.92
2019-04-07T21:18:41.249Z,17.88
2019-04-07T21:21:21.325Z,17.86
2019-04-07T21:24:01.523Z,17.84
2019-04-07T21:26:58.097Z,17.79
2019-04-07T21:29:33.343Z,17.72
2019-04-07T21:32:21.675Z,17.66
2019-04-07T21:35:08.699Z,17.55
2019-04-07T21:37:49.300Z,17.44
2019-04-07T21:40:28.655Z,17.20
2019-04-07T21:43:20.155Z,17.17
2019-04-07T21:46:02.509Z,17.22
2019-04-07T21:48:50.963Z,17.27
2019-04-07T21:51:36.550Z,17.32
2019-04-07T21:54:12.945Z,17.56
2019-04-07T21:57:07.870Z,17.59
2019-04-07T21:59:54.178Z,17.58
2019-04-07T22:02:44.792Z,17.54
2019-04-07T22:05:31.608Z,17.50
2019-04-07T22:08:10.165Z,17.44
2019-04-07T22:10:36.108Z,17.40
2019-04-07T22:13:07.094Z,17.35
2019-04-07T22:15:45.946Z,17.26
2019-04-07T22:18:08.963Z,16.73
2019-04-07T22:20:39.147Z,16.73
2019-04-07T22:23:09.981Z,16.60
2019-04-07T22:25:51.078Z,16.13
2019-04-07T22:28:20.846Z,16.29
2019-04-07T22:30:51.089Z,16.46
2019-04-07T22:33:25.237Z,16.52
2019-04-07T22:35:52.164Z,16.56
2019-04-07T22:38:23.469Z,16.54
2019-04-07T22:40:54.183Z,16.55
2019-04-07T22:43:24.939Z,16.45
2019-04-07T22:46:07.168Z,16.36
2019-04-07T22:48:27.880Z,16.31
2019-04-07T22:50:58.872Z,16.27
2019-04-07T22:53:31.179Z,16.26
2019-04-07T22:56:00.361Z,16.27
2019-04-07T22:58:30.163Z,16.21
2019-04-07T23:01:00.706Z,16.17
2019-04-07T23:03:31.352Z,16.12
2019-04-07T23:06:01.734Z,16.07
2019-04-07T23:08:31.555Z,16.08
2019-04-07T23:11:01.104Z,16.08
2019-04-07T23:13:30.817Z,16.06
2019-04-07T23:16:08.775Z,16.07
2019-04-07T23:18:32.031Z,16.04
2019-04-07T23:21:01.796Z,15.95
2019-04-07T23:23:32.269Z,15.82
2019-04-07T23:26:02.007Z,15.67
2019-04-07T23:28:32.646Z,15.58
2019-04-07T23:31:03.227Z,15.53
2019-04-07T23:33:34.649Z,15.44
2019-04-07T23:36:04.463Z,15.42
2019-04-07T23:38:34.733Z,15.37
2019-04-07T23:41:05.310Z,15.33
2019-04-07T23:43:35.551Z,15.33
2019-04-07T23:46:05.216Z,15.31
2019-04-07T23:48:34.896Z,15.28
2019-04-07T23:51:04.525Z,15.25
2019-04-07T23:54:10.922Z,15.17
2019-04-07T23:56:41.555Z,15.10
2019-04-07T23:59:11.430Z,15.05
